Fort Chipewyan Airport
CYPY : now visible

Airfield :











YOU CAN JOIN US ON...

 
LOGIN :

Register | Disclaimer

   EN    FR    IT 

 









Legend :    VFR   Marginal VFR   IFR   Intensive IFR   Very Intensive IFR
Visi :
Ceiling :
>= 8 km
>= 3000ft
5 to 8 km
1000 to 3000 ft
1500m to 5 km
500 to 1000 ft
800 to 1500m
200 to 500 ft
< 800m
< 200 ft
Symbols :   Thunderstorms  Fog  Heavy snow  Heavy precipitations  Wind > 20 kt






- Airport Elevation : 761 ft
- IATA code : YPY


CYPY - Fort Chipewyan

CURRENT METAR :
  • 171700Z AUTO 07002KT 9SM SCT034 OVC060 M01/M02 A2933 RMK SLP948

EXPIRED METARs :
  • 171600Z AUTO 09002KT 9SM OVC065 M02/M02 A2934 RMK SLP951
  • 171500Z AUTO 10002KT 9SM OVC065 M02/M03 A2934 RMK SLP952

TAF TAF CYPY
Valid from the 17 at 13:00 until the 18 at 01:00 UTC


171238Z 1713/1801 10005KT P6SM SCT004 OVC080
TEMPO 1713/1715 3SM -SN BR BKN004 OVC080
PROB30 1713/1715 3SM -FZRA BR
FM171500 13005KT 6SM -SN SCT020 OVC050
TEMPO 1715/1720 2SM -SN BR OVC020
PROB30 1715/1720 2SM -FZRA BR
FM172000 31008KT 6SM -SN SCT006 OVC015
TEMPO 1720/1801 2SM -SN OVC006 RMK FCST BASED ON AUTO OBS. NXT FCST BY 171800Z



MET'MAP, your aeronautical weather chart ! - Copyright ORBIFLY December 2007 - Disclaimer

ORBIFLY MET'MAP TEAM :

Programming & Development : Alexandra Zaïnal
Concept & Development : Baudouin d'Aumeries
Co-Development & Prog : Marc-Olivier Méhu
Technical & hardware support : Manuel Goepfert

Contact : metmap@orbifly.com




SOURCES & CREDITS :

   NOAA       Earth
Advisory